sensor_id;sensor_type;location;lat;lon;timestamp;temperature;humidity
69990;DHT22;57331;52.054;5.294;2022-07-23T00:00:29;15.70;41.10
69990;DHT22;57331;52.054;5.294;2022-07-23T00:03:04;15.70;48.70
69990;DHT22;57331;52.054;5.294;2022-07-23T00:05:31;15.70;48.70
69990;DHT22;57331;52.054;5.294;2022-07-23T00:12:55;17.60;50.40
69990;DHT22;57331;52.054;5.294;2022-07-23T00:15:22;15.30;49.30
69990;DHT22;57331;52.054;5.294;2022-07-23T00:17:49;15.60;49.60
69990;DHT22;57331;52.054;5.294;2022-07-23T00:20:16;17.30;50.70
69990;DHT22;57331;52.054;5.294;2022-07-23T00:22:51;17.00;50.50
69990;DHT22;57331;52.054;5.294;2022-07-23T00:27:57;15.40;49.80
69990;DHT22;57331;52.054;5.294;2022-07-23T00:32:58;15.10;50.00
69990;DHT22;57331;52.054;5.294;2022-07-23T00:35:30;15.30;50.20
69990;DHT22;57331;52.054;5.294;2022-07-23T00:37:58;16.30;51.10
69990;DHT22;57331;52.054;5.294;2022-07-23T00:40:26;15.10;50.40
69990;DHT22;57331;52.054;5.294;2022-07-23T00:42:53;15.50;50.40
69990;DHT22;57331;52.054;5.294;2022-07-23T00:50:16;15.10;50.50
69990;DHT22;57331;52.054;5.294;2022-07-23T00:52:43;14.90;37.80
69990;DHT22;57331;52.054;5.294;2022-07-23T00:55:11;16.10;37.40
69990;DHT22;57331;52.054;5.294;2022-07-23T00:57:39;14.90;48.40
69990;DHT22;57331;52.054;5.294;2022-07-23T01:00:09;16.60;52.00
69990;DHT22;57331;52.054;5.294;2022-07-23T01:02:38;17.40;52.50
69990;DHT22;57331;52.054;5.294;2022-07-23T01:07:34;16.00;37.80
69990;DHT22;57331;52.054;5.294;2022-07-23T01:10:01;17.20;52.60
69990;DHT22;57331;52.054;5.294;2022-07-23T01:12:29;15.30;51.50
69990;DHT22;57331;52.054;5.294;2022-07-23T01:14:58;15.70;37.80
69990;DHT22;57331;52.054;5.294;2022-07-23T01:19:55;17.10;52.80
69990;DHT22;57331;52.054;5.294;2022-07-23T01:22:22;14.90;51.70
69990;DHT22;57331;52.054;5.294;2022-07-23T01:29:55;15.50;38.30
69990;DHT22;57331;52.054;5.294;2022-07-23T01:34:51;15.40;52.70
69990;DHT22;57331;52.054;5.294;2022-07-23T01:37:18;14.80;52.50
69990;DHT22;57331;52.054;5.294;2022-07-23T01:42:14;14.50;52.40
69990;DHT22;57331;52.054;5.294;2022-07-23T01:47:14;15.20;53.00
69990;DHT22;57331;52.054;5.294;2022-07-23T01:49:41;14.20;52.60
69990;DHT22;57331;52.054;5.294;2022-07-23T01:55:10;16.40;51.50
69990;DHT22;57331;52.054;5.294;2022-07-23T02:00:14;16.30;54.60
69990;DHT22;57331;52.054;5.294;2022-07-23T02:02:46;14.60;53.70
69990;DHT22;57331;52.054;5.294;2022-07-23T02:07:40;14.10;53.80
69990;DHT22;57331;52.054;5.294;2022-07-23T02:10:07;15.30;54.50
69990;DHT22;57331;52.054;5.294;2022-07-23T02:15:04;14.90;39.60
69990;DHT22;57331;52.054;5.294;2022-07-23T02:20:01;15.00;54.90
69990;DHT22;57331;52.054;5.294;2022-07-23T02:22:28;14.10;54.50
69990;DHT22;57331;52.054;5.294;2022-07-23T02:32:17;13.60;54.50
69990;DHT22;57331;52.054;5.294;2022-07-23T02:37:11;16.00;56.00
69990;DHT22;57331;52.054;5.294;2022-07-23T02:39:38;15.60;55.70
69990;DHT22;57331;52.054;5.294;2022-07-23T02:42:05;14.70;55.30
69990;DHT22;57331;52.054;5.294;2022-07-23T02:49:29;15.50;56.20
69990;DHT22;57331;52.054;5.294;2022-07-23T02:51:56;15.80;56.30
69990;DHT22;57331;52.054;5.294;2022-07-23T02:54:22;15.80;56.20
69990;DHT22;57331;52.054;5.294;2022-07-23T02:56:51;15.80;50.90
69990;DHT22;57331;52.054;5.294;2022-07-23T02:59:18;14.80;55.90
69990;DHT22;57331;52.054;5.294;2022-07-23T03:01:46;15.80;56.40
69990;DHT22;57331;52.054;5.294;2022-07-23T03:09:09;14.90;55.90
69990;DHT22;57331;52.054;5.294;2022-07-23T03:11:38;15.30;56.30
69990;DHT22;57331;52.054;5.294;2022-07-23T03:24:01;14.20;40.80
69990;DHT22;57331;52.054;5.294;2022-07-23T03:26:28;13.10;55.40
69990;DHT22;57331;52.054;5.294;2022-07-23T03:28:55;13.70;56.30
69990;DHT22;57331;52.054;5.294;2022-07-23T03:33:49;14.00;57.00
69990;DHT22;57331;52.054;5.294;2022-07-23T03:38:47;13.90;57.10
69990;DHT22;57331;52.054;5.294;2022-07-23T03:46:10;14.00;57.20
69990;DHT22;57331;52.054;5.294;2022-07-23T03:58:29;13.10;57.00
69990;DHT22;57331;52.054;5.294;2022-07-23T04:08:20;14.10;57.50
69990;DHT22;57331;52.054;5.294;2022-07-23T04:10:50;15.00;57.80
69990;DHT22;57331;52.054;5.294;2022-07-23T04:18:11;12.90;57.00
69990;DHT22;57331;52.054;5.294;2022-07-23T04:20:46;14.70;57.90
69990;DHT22;57331;52.054;5.294;2022-07-23T04:25:42;13.70;56.80
69990;DHT22;57331;52.054;5.294;2022-07-23T04:30:36;13.10;47.80
69990;DHT22;57331;52.054;5.294;2022-07-23T04:33:06;13.50;56.60
69990;DHT22;57331;52.054;5.294;2022-07-23T04:35:36;13.10;41.30
69990;DHT22;57331;52.054;5.294;2022-07-23T04:45:40;13.40;56.00
69990;DHT22;57331;52.054;5.294;2022-07-23T04:48:09;13.30;56.00
69990;DHT22;57331;52.054;5.294;2022-07-23T04:50:36;13.40;55.90
69990;DHT22;57331;52.054;5.294;2022-07-23T04:55:31;14.00;56.40
69990;DHT22;57331;52.054;5.294;2022-07-23T04:57:58;15.10;57.20
69990;DHT22;57331;52.054;5.294;2022-07-23T05:10:15;15.10;52.60
69990;DHT22;57331;52.054;5.294;2022-07-23T05:12:42;14.00;46.40
69990;DHT22;57331;52.054;5.294;2022-07-23T05:17:37;14.40;53.50
69990;DHT22;57331;52.054;5.294;2022-07-23T05:20:10;16.60;56.90
69990;DHT22;57331;52.054;5.294;2022-07-23T05:22:37;14.70;55.60
69990;DHT22;57331;52.054;5.294;2022-07-23T05:27:31;17.20;56.50
69990;DHT22;57331;52.054;5.294;2022-07-23T05:35:05;17.50;55.90
69990;DHT22;57331;52.054;5.294;2022-07-23T05:40:06;15.70;54.50
69990;DHT22;57331;52.054;5.294;2022-07-23T05:42:35;16.60;39.30
69990;DHT22;57331;52.054;5.294;2022-07-23T05:45:03;16.50;54.40
69990;DHT22;57331;52.054;5.294;2022-07-23T05:47:43;16.80;38.90
69990;DHT22;57331;52.054;5.294;2022-07-23T05:50:12;17.20;54.60
69990;DHT22;57331;52.054;5.294;2022-07-23T05:52:44;15.80;53.40
69990;DHT22;57331;52.054;5.294;2022-07-23T05:58:01;15.80;53.10
69990;DHT22;57331;52.054;5.294;2022-07-23T06:10:24;16.50;52.30
69990;DHT22;57331;52.054;5.294;2022-07-23T06:12:51;18.90;48.00
69990;DHT22;57331;52.054;5.294;2022-07-23T06:15:20;17.50;52.20
69990;DHT22;57331;52.054;5.294;2022-07-23T06:17:47;19.50;52.80
69990;DHT22;57331;52.054;5.294;2022-07-23T06:25:10;16.90;50.60
69990;DHT22;57331;52.054;5.294;2022-07-23T06:27:45;17.50;50.60
69990;DHT22;57331;52.054;5.294;2022-07-23T06:30:13;17.10;50.00
69990;DHT22;57331;52.054;5.294;2022-07-23T06:32:43;17.60;49.80
69990;DHT22;57331;52.054;5.294;2022-07-23T06:35:10;17.50;49.50
69990;DHT22;57331;52.054;5.294;2022-07-23T06:40:05;17.80;39.20
69990;DHT22;57331;52.054;5.294;2022-07-23T06:42:34;17.70;39.80
69990;DHT22;57331;52.054;5.294;2022-07-23T06:45:04;20.30;50.30
69990;DHT22;57331;52.054;5.294;2022-07-23T06:54:55;20.50;48.50
69990;DHT22;57331;52.054;5.294;2022-07-23T07:02:21;19.10;47.00
69990;DHT22;57331;52.054;5.294;2022-07-23T07:07:16;18.80;45.60
69990;DHT22;57331;52.054;5.294;2022-07-23T07:14:41;21.70;45.80
69990;DHT22;57331;52.054;5.294;2022-07-23T07:17:09;20.20;30.60
69990;DHT22;57331;52.054;5.294;2022-07-23T07:19:37;19.80;43.50
69990;DHT22;57331;52.054;5.294;2022-07-23T07:22:04;20.20;43.90
69990;DHT22;57331;52.054;5.294;2022-07-23T07:24:31;20.00;43.10
69990;DHT22;57331;52.054;5.294;2022-07-23T07:27:04;19.50;41.40
69990;DHT22;57331;52.054;5.294;2022-07-23T07:36:52;19.20;40.50
69990;DHT22;57331;52.054;5.294;2022-07-23T07:39:19;20.80;41.10
69990;DHT22;57331;52.054;5.294;2022-07-23T07:41:46;21.30;41.30
69990;DHT22;57331;52.054;5.294;2022-07-23T07:44:13;21.10;41.20
69990;DHT22;57331;52.054;5.294;2022-07-23T07:46:40;21.50;40.40
69990;DHT22;57331;52.054;5.294;2022-07-23T07:49:07;19.80;39.50
69990;DHT22;57331;52.054;5.294;2022-07-23T07:51:41;19.80;39.30
69990;DHT22;57331;52.054;5.294;2022-07-23T07:54:11;21.10;28.20
69990;DHT22;57331;52.054;5.294;2022-07-23T07:56:39;21.40;28.20
69990;DHT22;57331;52.054;5.294;2022-07-23T07:59:06;21.60;28.00
69990;DHT22;57331;52.054;5.294;2022-07-23T08:01:33;22.00;27.70
69990;DHT22;57331;52.054;5.294;2022-07-23T08:04:00;22.20;38.80
69990;DHT22;57331;52.054;5.294;2022-07-23T08:06:27;22.40;27.60
69990;DHT22;57331;52.054;5.294;2022-07-23T08:08:54;22.00;27.20
69990;DHT22;57331;52.054;5.294;2022-07-23T08:11:21;23.40;37.40
69990;DHT22;57331;52.054;5.294;2022-07-23T08:13:48;21.40;37.00
69990;DHT22;57331;52.054;5.294;2022-07-23T08:16:15;22.00;26.40
69990;DHT22;57331;52.054;5.294;2022-07-23T08:18:42;21.90;25.90
69990;DHT22;57331;52.054;5.294;2022-07-23T08:21:08;22.00;26.00
69990;DHT22;57331;52.054;5.294;2022-07-23T08:23:35;22.40;36.50
69990;DHT22;57331;52.054;5.294;2022-07-23T08:26:02;22.50;25.70
69990;DHT22;57331;52.054;5.294;2022-07-23T08:28:29;20.90;34.70
69990;DHT22;57331;52.054;5.294;2022-07-23T08:31:00;22.40;25.30
69990;DHT22;57331;52.054;5.294;2022-07-23T08:33:27;22.70;34.60
69990;DHT22;57331;52.054;5.294;2022-07-23T08:36:01;23.20;34.00
69990;DHT22;57331;52.054;5.294;2022-07-23T08:38:30;23.20;24.20
69990;DHT22;57331;52.054;5.294;2022-07-23T08:40:57;22.40;34.00
69990;DHT22;57331;52.054;5.294;2022-07-23T08:43:26;22.40;34.50
69990;DHT22;57331;52.054;5.294;2022-07-23T08:45:55;22.50;34.90
69990;DHT22;57331;52.054;5.294;2022-07-23T08:48:29;22.50;24.00
69990;DHT22;57331;52.054;5.294;2022-07-23T08:50:59;22.70;24.50
69990;DHT22;57331;52.054;5.294;2022-07-23T08:53:28;22.80;23.40
69990;DHT22;57331;52.054;5.294;2022-07-23T08:56:00;23.20;33.00
69990;DHT22;57331;52.054;5.294;2022-07-23T08:58:29;23.50;33.40
69990;DHT22;57331;52.054;5.294;2022-07-23T09:00:56;23.40;23.00
69990;DHT22;57331;52.054;5.294;2022-07-23T09:03:35;23.60;22.80
69990;DHT22;57331;52.054;5.294;2022-07-23T09:06:03;24.40;31.70
69990;DHT22;57331;52.054;5.294;2022-07-23T09:11:07;24.20;21.50
69990;DHT22;57331;52.054;5.294;2022-07-23T09:13:49;24.30;21.60
69990;DHT22;57331;52.054;5.294;2022-07-23T09:16:18;25.20;21.70
69990;DHT22;57331;52.054;5.294;2022-07-23T09:18:56;24.50;20.80
69990;DHT22;57331;52.054;5.294;2022-07-23T09:21:28;24.60;20.20
69990;DHT22;57331;52.054;5.294;2022-07-23T09:24:02;24.70;20.60
69990;DHT22;57331;52.054;5.294;2022-07-23T09:31:44;25.10;19.90
69990;DHT22;57331;52.054;5.294;2022-07-23T09:34:20;25.10;19.30
69990;DHT22;57331;52.054;5.294;2022-07-23T09:36:51;25.20;19.30
69990;DHT22;57331;52.054;5.294;2022-07-23T09:39:30;25.20;18.70
69990;DHT22;57331;52.054;5.294;2022-07-23T09:41:58;25.90;27.40
69990;DHT22;57331;52.054;5.294;2022-07-23T09:44:45;25.20;18.20
69990;DHT22;57331;52.054;5.294;2022-07-23T09:47:12;25.30;17.50
69990;DHT22;57331;52.054;5.294;2022-07-23T09:49:39;25.40;17.80
69990;DHT22;57331;52.054;5.294;2022-07-23T09:52:06;25.70;17.90
69990;DHT22;57331;52.054;5.294;2022-07-23T09:57:08;25.90;16.70
69990;DHT22;57331;52.054;5.294;2022-07-23T09:59:39;26.00;16.40
69990;DHT22;57331;52.054;5.294;2022-07-23T10:02:07;26.00;16.40
69990;DHT22;57331;52.054;5.294;2022-07-23T10:04:47;26.20;16.40
69990;DHT22;57331;52.054;5.294;2022-07-23T10:07:26;26.50;16.30
69990;DHT22;57331;52.054;5.294;2022-07-23T10:10:12;26.80;16.50
69990;DHT22;57331;52.054;5.294;2022-07-23T10:12:59;27.10;16.30
69990;DHT22;57331;52.054;5.294;2022-07-23T10:15:48;27.50;16.70
69990;DHT22;57331;52.054;5.294;2022-07-23T10:18:16;27.50;14.80
69990;DHT22;57331;52.054;5.294;2022-07-23T10:20:43;27.40;13.90
69990;DHT22;57331;52.054;5.294;2022-07-23T10:23:30;27.30;13.70
69990;DHT22;57331;52.054;5.294;2022-07-23T10:26:19;27.20;14.20
69990;DHT22;57331;52.054;5.294;2022-07-23T10:37:12;27.40;13.20
69990;DHT22;57331;52.054;5.294;2022-07-23T10:39:47;27.80;13.50
69990;DHT22;57331;52.054;5.294;2022-07-23T10:42:16;27.40;20.80
69990;DHT22;57331;52.054;5.294;2022-07-23T10:44:45;28.40;21.60
69990;DHT22;57331;52.054;5.294;2022-07-23T10:47:27;26.90;19.30
69990;DHT22;57331;52.054;5.294;2022-07-23T10:50:23;28.40;19.50
69990;DHT22;57331;52.054;5.294;2022-07-23T10:58:04;30.40;20.20
69990;DHT22;57331;52.054;5.294;2022-07-23T11:00:33;28.50;10.50
69990;DHT22;57331;52.054;5.294;2022-07-23T11:03:03;28.60;10.90
69990;DHT22;57331;52.054;5.294;2022-07-23T11:05:44;28.80;11.90
69990;DHT22;57331;52.054;5.294;2022-07-23T11:08:15;29.20;11.60
69990;DHT22;57331;52.054;5.294;2022-07-23T11:10:51;29.40;10.80
69990;DHT22;57331;52.054;5.294;2022-07-23T11:24:12;30.00;8.70
69990;DHT22;57331;52.054;5.294;2022-07-23T11:27:15;30.20;9.00
69990;DHT22;57331;52.054;5.294;2022-07-23T11:30:02;30.30;9.80
69990;DHT22;57331;52.054;5.294;2022-07-23T11:32:32;30.20;8.30
69990;DHT22;57331;52.054;5.294;2022-07-23T11:35:00;30.10;8.10
69990;DHT22;57331;52.054;5.294;2022-07-23T11:40:09;30.20;8.00
69990;DHT22;57331;52.054;5.294;2022-07-23T11:42:38;30.10;8.50
69990;DHT22;57331;52.054;5.294;2022-07-23T11:45:07;30.00;8.00
69990;DHT22;57331;52.054;5.294;2022-07-23T11:47:35;29.90;8.40
69990;DHT22;57331;52.054;5.294;2022-07-23T11:50:04;30.20;8.20
69990;DHT22;57331;52.054;5.294;2022-07-23T11:52:33;30.20;8.50
69990;DHT22;57331;52.054;5.294;2022-07-23T11:55:08;30.40;8.50
69990;DHT22;57331;52.054;5.294;2022-07-23T11:57:38;30.50;7.50
69990;DHT22;57331;52.054;5.294;2022-07-23T12:00:18;30.80;8.00
69990;DHT22;57331;52.054;5.294;2022-07-23T12:02:51;30.70;8.60
69990;DHT22;57331;52.054;5.294;2022-07-23T12:05:24;30.90;7.60
69990;DHT22;57331;52.054;5.294;2022-07-23T12:07:53;31.10;7.30
69990;DHT22;57331;52.054;5.294;2022-07-23T12:10:26;31.00;7.10
69990;DHT22;57331;52.054;5.294;2022-07-23T12:12:58;31.10;6.90
69990;DHT22;57331;52.054;5.294;2022-07-23T12:15:30;31.40;7.70
69990;DHT22;57331;52.054;5.294;2022-07-23T12:18:02;31.60;7.10
69990;DHT22;57331;52.054;5.294;2022-07-23T12:20:38;32.00;7.50
69990;DHT22;57331;52.054;5.294;2022-07-23T12:23:07;32.80;7.50
69990;DHT22;57331;52.054;5.294;2022-07-23T12:25:39;32.50;5.70
69990;DHT22;57331;52.054;5.294;2022-07-23T12:28:20;32.40;5.70
69990;DHT22;57331;52.054;5.294;2022-07-23T12:30:50;32.40;5.60
69990;DHT22;57331;52.054;5.294;2022-07-23T12:33:29;32.60;6.20
69990;DHT22;57331;52.054;5.294;2022-07-23T12:36:03;32.80;6.50
69990;DHT22;57331;52.054;5.294;2022-07-23T12:38:39;33.00;5.20
69990;DHT22;57331;52.054;5.294;2022-07-23T12:41:06;33.00;5.50
69990;DHT22;57331;52.054;5.294;2022-07-23T12:43:36;33.00;5.90
69990;DHT22;57331;52.054;5.294;2022-07-23T12:46:15;33.00;5.20
69990;DHT22;57331;52.054;5.294;2022-07-23T12:51:25;33.20;5.90
69990;DHT22;57331;52.054;5.294;2022-07-23T12:53:59;33.60;6.10
69990;DHT22;57331;52.054;5.294;2022-07-23T12:56:33;34.00;5.50
69990;DHT22;57331;52.054;5.294;2022-07-23T13:01:34;34.20;4.60
69990;DHT22;57331;52.054;5.294;2022-07-23T13:04:05;33.90;4.60
69990;DHT22;57331;52.054;5.294;2022-07-23T13:09:14;33.50;4.30
69990;DHT22;57331;52.054;5.294;2022-07-23T13:11:42;33.10;3.60
69990;DHT22;57331;52.054;5.294;2022-07-23T13:14:10;32.60;4.40
69990;DHT22;57331;52.054;5.294;2022-07-23T13:16:39;32.50;4.10
69990;DHT22;57331;52.054;5.294;2022-07-23T13:19:06;32.50;4.80
69990;DHT22;57331;52.054;5.294;2022-07-23T13:21:41;32.60;4.50
69990;DHT22;57331;52.054;5.294;2022-07-23T13:24:11;32.70;5.10
69990;DHT22;57331;52.054;5.294;2022-07-23T13:26:39;32.90;4.80
69990;DHT22;57331;52.054;5.294;2022-07-23T13:29:06;32.90;4.20
69990;DHT22;57331;52.054;5.294;2022-07-23T13:31:36;32.80;4.50
69990;DHT22;57331;52.054;5.294;2022-07-23T13:34:05;32.90;4.80
69990;DHT22;57331;52.054;5.294;2022-07-23T13:36:36;32.90;4.80
69990;DHT22;57331;52.054;5.294;2022-07-23T13:39:04;33.00;4.60
69990;DHT22;57331;52.054;5.294;2022-07-23T13:41:33;33.10;4.70
69990;DHT22;57331;52.054;5.294;2022-07-23T13:44:02;33.00;4.40
69990;DHT22;57331;52.054;5.294;2022-07-23T13:46:28;33.00;4.70
69990;DHT22;57331;52.054;5.294;2022-07-23T13:48:55;33.00;4.50
69990;DHT22;57331;52.054;5.294;2022-07-23T13:51:22;33.10;4.60
69990;DHT22;57331;52.054;5.294;2022-07-23T13:53:51;33.00;4.20
69990;DHT22;57331;52.054;5.294;2022-07-23T13:56:19;32.90;4.60
69990;DHT22;57331;52.054;5.294;2022-07-23T13:58:47;33.00;4.10
69990;DHT22;57331;52.054;5.294;2022-07-23T14:01:14;33.10;4.70
69990;DHT22;57331;52.054;5.294;2022-07-23T14:03:44;33.20;9.90
69990;DHT22;57331;52.054;5.294;2022-07-23T14:06:11;33.40;4.20
69990;DHT22;57331;52.054;5.294;2022-07-23T14:08:43;33.40;3.90
69990;DHT22;57331;52.054;5.294;2022-07-23T14:11:11;33.50;4.30
69990;DHT22;57331;52.054;5.294;2022-07-23T14:13:38;33.50;4.20
69990;DHT22;57331;52.054;5.294;2022-07-23T14:16:06;33.70;4.40
69990;DHT22;57331;52.054;5.294;2022-07-23T14:18:33;33.80;3.80
69990;DHT22;57331;52.054;5.294;2022-07-23T14:21:01;33.80;3.60
69990;DHT22;57331;52.054;5.294;2022-07-23T14:23:29;33.90;3.60
69990;DHT22;57331;52.054;5.294;2022-07-23T14:25:56;33.70;3.80
69990;DHT22;57331;52.054;5.294;2022-07-23T14:28:24;33.70;3.80
69990;DHT22;57331;52.054;5.294;2022-07-23T14:30:51;33.50;3.90
69990;DHT22;57331;52.054;5.294;2022-07-23T14:33:18;32.50;4.40
69990;DHT22;57331;52.054;5.294;2022-07-23T14:35:45;32.00;5.10
69990;DHT22;57331;52.054;5.294;2022-07-23T14:38:12;31.50;6.30
69990;DHT22;57331;52.054;5.294;2022-07-23T14:40:40;31.20;6.00
69990;DHT22;57331;52.054;5.294;2022-07-23T14:43:08;31.10;6.60
69990;DHT22;57331;52.054;5.294;2022-07-23T14:45:37;31.10;6.70
69990;DHT22;57331;52.054;5.294;2022-07-23T14:48:04;30.90;6.70
69990;DHT22;57331;52.054;5.294;2022-07-23T14:50:31;30.60;6.90
69990;DHT22;57331;52.054;5.294;2022-07-23T14:52:58;30.30;7.40
69990;DHT22;57331;52.054;5.294;2022-07-23T14:55:25;30.20;7.80
69990;DHT22;57331;52.054;5.294;2022-07-23T14:57:52;30.30;8.00
69990;DHT22;57331;52.054;5.294;2022-07-23T15:00:19;30.60;7.50
69990;DHT22;57331;52.054;5.294;2022-07-23T15:02:50;30.50;7.60
69990;DHT22;57331;52.054;5.294;2022-07-23T15:05:21;30.30;8.00
69990;DHT22;57331;52.054;5.294;2022-07-23T15:07:48;30.80;8.30
69990;DHT22;57331;52.054;5.294;2022-07-23T15:10:16;31.10;8.30
69990;DHT22;57331;52.054;5.294;2022-07-23T15:12:49;31.80;8.00
69990;DHT22;57331;52.054;5.294;2022-07-23T15:15:16;32.40;7.10
69990;DHT22;57331;52.054;5.294;2022-07-23T15:17:44;33.00;6.60
69990;DHT22;57331;52.054;5.294;2022-07-23T15:20:11;33.60;6.00
69990;DHT22;57331;52.054;5.294;2022-07-23T15:22:41;33.80;4.70
69990;DHT22;57331;52.054;5.294;2022-07-23T15:25:08;33.80;4.10
69990;DHT22;57331;52.054;5.294;2022-07-23T15:27:38;34.00;4.40
69990;DHT22;57331;52.054;5.294;2022-07-23T15:30:06;33.90;3.80
69990;DHT22;57331;52.054;5.294;2022-07-23T15:32:34;33.90;3.90
69990;DHT22;57331;52.054;5.294;2022-07-23T15:35:01;33.90;3.70
69990;DHT22;57331;52.054;5.294;2022-07-23T15:37:31;33.80;3.70
69990;DHT22;57331;52.054;5.294;2022-07-23T15:40:01;33.80;3.80
69990;DHT22;57331;52.054;5.294;2022-07-23T15:42:28;33.80;4.20
69990;DHT22;57331;52.054;5.294;2022-07-23T15:44:55;33.80;4.30
69990;DHT22;57331;52.054;5.294;2022-07-23T15:47:22;33.70;4.00
69990;DHT22;57331;52.054;5.294;2022-07-23T15:49:51;33.60;4.00
69990;DHT22;57331;52.054;5.294;2022-07-23T15:52:18;33.60;3.90
69990;DHT22;57331;52.054;5.294;2022-07-23T15:55:05;33.10;3.80
69990;DHT22;57331;52.054;5.294;2022-07-23T15:57:43;32.40;4.20
69990;DHT22;57331;52.054;5.294;2022-07-23T16:00:11;31.90;4.90
69990;DHT22;57331;52.054;5.294;2022-07-23T16:02:38;31.10;5.50
69990;DHT22;57331;52.054;5.294;2022-07-23T16:05:05;30.70;6.30
69990;DHT22;57331;52.054;5.294;2022-07-23T16:07:51;30.50;6.50
69990;DHT22;57331;52.054;5.294;2022-07-23T16:10:18;30.40;7.70
69990;DHT22;57331;52.054;5.294;2022-07-23T16:12:45;30.90;7.90
69990;DHT22;57331;52.054;5.294;2022-07-23T16:15:12;30.90;7.90
69990;DHT22;57331;52.054;5.294;2022-07-23T16:17:39;31.40;7.60
69990;DHT22;57331;52.054;5.294;2022-07-23T16:20:06;31.80;6.80
69990;DHT22;57331;52.054;5.294;2022-07-23T16:22:34;31.80;6.20
69990;DHT22;57331;52.054;5.294;2022-07-23T16:25:03;31.80;6.50
69990;DHT22;57331;52.054;5.294;2022-07-23T16:27:35;32.10;6.30
69990;DHT22;57331;52.054;5.294;2022-07-23T16:30:04;32.20;5.90
69990;DHT22;57331;52.054;5.294;2022-07-23T16:32:31;32.10;5.40
69990;DHT22;57331;52.054;5.294;2022-07-23T16:34:58;32.00;5.50
69990;DHT22;57331;52.054;5.294;2022-07-23T16:37:25;31.80;5.50
69990;DHT22;57331;52.054;5.294;2022-07-23T16:39:52;32.20;5.80
69990;DHT22;57331;52.054;5.294;2022-07-23T16:42:19;31.90;5.60
69990;DHT22;57331;52.054;5.294;2022-07-23T16:44:47;32.00;6.00
69990;DHT22;57331;52.054;5.294;2022-07-23T16:47:14;31.70;6.00
69990;DHT22;57331;52.054;5.294;2022-07-23T16:49:40;31.80;6.20
69990;DHT22;57331;52.054;5.294;2022-07-23T16:52:07;31.60;6.00
69990;DHT22;57331;52.054;5.294;2022-07-23T16:54:34;31.50;6.00
69990;DHT22;57331;52.054;5.294;2022-07-23T16:57:01;31.20;6.00
69990;DHT22;57331;52.054;5.294;2022-07-23T16:59:28;31.00;6.10
69990;DHT22;57331;52.054;5.294;2022-07-23T17:01:54;31.00;6.90
69990;DHT22;57331;52.054;5.294;2022-07-23T17:04:21;31.10;7.00
69990;DHT22;57331;52.054;5.294;2022-07-23T17:06:49;31.30;6.90
69990;DHT22;57331;52.054;5.294;2022-07-23T17:09:16;31.50;6.50
69990;DHT22;57331;52.054;5.294;2022-07-23T17:11:43;31.50;6.30
69990;DHT22;57331;52.054;5.294;2022-07-23T17:14:10;31.40;6.10
69990;DHT22;57331;52.054;5.294;2022-07-23T17:16:41;31.20;6.20
69990;DHT22;57331;52.054;5.294;2022-07-23T17:19:08;30.70;6.40
69990;DHT22;57331;52.054;5.294;2022-07-23T17:21:35;30.30;7.10
69990;DHT22;57331;52.054;5.294;2022-07-23T17:24:02;30.30;7.70
69990;DHT22;57331;52.054;5.294;2022-07-23T17:26:36;30.30;7.50
69990;DHT22;57331;52.054;5.294;2022-07-23T17:29:04;30.50;7.50
69990;DHT22;57331;52.054;5.294;2022-07-23T17:31:34;30.50;7.20
69990;DHT22;57331;52.054;5.294;2022-07-23T17:34:01;31.00;8.70
69990;DHT22;57331;52.054;5.294;2022-07-23T17:36:28;30.10;7.60
69990;DHT22;57331;52.054;5.294;2022-07-23T17:38:55;29.90;7.90
69990;DHT22;57331;52.054;5.294;2022-07-23T17:41:22;29.80;8.10
69990;DHT22;57331;52.054;5.294;2022-07-23T17:43:49;29.80;7.90
69990;DHT22;57331;52.054;5.294;2022-07-23T17:46:16;29.70;8.20
69990;DHT22;57331;52.054;5.294;2022-07-23T17:48:43;29.40;8.30
69990;DHT22;57331;52.054;5.294;2022-07-23T17:51:10;29.20;8.50
69990;DHT22;57331;52.054;5.294;2022-07-23T17:53:37;29.10;8.70
69990;DHT22;57331;52.054;5.294;2022-07-23T17:56:04;29.10;8.70
69990;DHT22;57331;52.054;5.294;2022-07-23T17:58:31;29.00;8.80
69990;DHT22;57331;52.054;5.294;2022-07-23T18:00:58;29.00;9.10
69990;DHT22;57331;52.054;5.294;2022-07-23T18:03:25;29.20;9.30
69990;DHT22;57331;52.054;5.294;2022-07-23T18:05:52;28.90;9.30
69990;DHT22;57331;52.054;5.294;2022-07-23T18:08:19;28.80;9.20
69990;DHT22;57331;52.054;5.294;2022-07-23T18:10:46;28.80;9.50
69990;DHT22;57331;52.054;5.294;2022-07-23T18:13:13;29.00;9.70
69990;DHT22;57331;52.054;5.294;2022-07-23T18:15:40;29.40;9.70
69990;DHT22;57331;52.054;5.294;2022-07-23T18:18:07;28.90;9.70
69990;DHT22;57331;52.054;5.294;2022-07-23T18:20:34;28.90;9.50
69990;DHT22;57331;52.054;5.294;2022-07-23T18:23:04;28.80;9.50
69990;DHT22;57331;52.054;5.294;2022-07-23T18:25:31;28.70;9.50
69990;DHT22;57331;52.054;5.294;2022-07-23T18:27:58;28.70;9.70
69990;DHT22;57331;52.054;5.294;2022-07-23T18:30:25;28.70;9.80
69990;DHT22;57331;52.054;5.294;2022-07-23T18:32:53;28.70;10.00
69990;DHT22;57331;52.054;5.294;2022-07-23T18:35:20;28.60;9.90
69990;DHT22;57331;52.054;5.294;2022-07-23T18:37:49;29.70;10.80
69990;DHT22;57331;52.054;5.294;2022-07-23T18:40:18;28.60;10.30
69990;DHT22;57331;52.054;5.294;2022-07-23T18:42:46;30.80;11.40
69990;DHT22;57331;52.054;5.294;2022-07-23T18:45:13;28.30;10.50
69990;DHT22;57331;52.054;5.294;2022-07-23T18:47:41;28.70;11.00
69990;DHT22;57331;52.054;5.294;2022-07-23T18:50:11;28.00;11.00
69990;DHT22;57331;52.054;5.294;2022-07-23T18:52:38;27.80;11.00
69990;DHT22;57331;52.054;5.294;2022-07-23T18:55:06;27.70;11.30
69990;DHT22;57331;52.054;5.294;2022-07-23T19:00:01;27.30;11.10
69990;DHT22;57331;52.054;5.294;2022-07-23T19:02:27;26.90;12.40
69990;DHT22;57331;52.054;5.294;2022-07-23T19:04:55;27.00;13.10
69990;DHT22;57331;52.054;5.294;2022-07-23T19:07:22;26.80;13.70
69990;DHT22;57331;52.054;5.294;2022-07-23T19:09:48;27.40;14.60
69990;DHT22;57331;52.054;5.294;2022-07-23T19:12:16;26.40;14.70
69990;DHT22;57331;52.054;5.294;2022-07-23T19:14:43;26.30;15.20
69990;DHT22;57331;52.054;5.294;2022-07-23T19:17:10;25.20;24.40
69990;DHT22;57331;52.054;5.294;2022-07-23T19:19:36;26.40;16.40
69990;DHT22;57331;52.054;5.294;2022-07-23T19:22:03;25.80;16.60
69990;DHT22;57331;52.054;5.294;2022-07-23T19:24:32;25.70;16.80
69990;DHT22;57331;52.054;5.294;2022-07-23T19:26:59;25.60;17.20
69990;DHT22;57331;52.054;5.294;2022-07-23T19:29:32;25.90;26.90
69990;DHT22;57331;52.054;5.294;2022-07-23T19:32:05;25.40;17.80
69990;DHT22;57331;52.054;5.294;2022-07-23T19:34:33;25.30;18.40
69990;DHT22;57331;52.054;5.294;2022-07-23T19:37:01;24.80;27.70
69990;DHT22;57331;52.054;5.294;2022-07-23T19:39:29;25.00;18.70
69990;DHT22;57331;52.054;5.294;2022-07-23T19:41:56;24.70;18.90
69990;DHT22;57331;52.054;5.294;2022-07-23T19:44:24;24.80;19.30
69990;DHT22;57331;52.054;5.294;2022-07-23T19:46:52;25.30;28.90
69990;DHT22;57331;52.054;5.294;2022-07-23T19:49:19;24.60;20.00